Time;durP1;ratioP1;P1;durP2;ratioP2;P2;SDS_P1;SDS_P2;PMS_P1;PMS_P2;Temp;Humidity;BMP_temperature;BMP_pressure;BME280_temperature;BME280_humidity;BME280_pressure;Samples;Min_cycle;Max_cycle;Signal;HPM_P1;HPM_P2
2021/09/13 04:36:06;;;;;;;;;;;;;;;16.83;76.36;99013.66;4933973;29;19938;-82
2021/09/13 04:38:52;;;;;;;;;;;;;;;16.89;75.91;99013.00;4935876;29;20021;-82
2021/09/13 04:41:33;;;;;;;;;;;;;;;16.99;75.91;99010.84;4937622;29;19975;-82
2021/09/13 04:44:19;;;;;;;;;;;;;;;17.00;75.42;99007.72;4922666;29;20292;-88
2021/09/13 04:47:04;;;;;;;;;;;;;;;17.04;75.55;99010.53;4916668;29;19927;-88
2021/09/13 04:49:48;;;;;;;;;;;;;;;17.20;74.91;99002.19;4934925;29;19927;-84
2021/09/13 04:52:35;;;;;;;;;;;;;;;17.25;75.18;98999.94;4935185;29;19927;-89
2021/09/13 04:55:02;;;;;;;;;;;;;;;17.31;74.62;99003.19;4934232;29;19978;-84
2021/09/13 04:57:27;;;;;;;;;;;;;;;17.31;74.50;99000.41;4918538;29;20352;-83
2021/09/13 04:59:54;;;;;;;;;;;;;;;17.29;74.26;99002.75;4918451;29;20387;-83
2021/09/13 05:02:19;;;;;;;;;;;;;;;17.32;74.17;98999.28;4918063;29;20307;-85
2021/09/13 05:04:45;;;;;;;;;;;;;;;17.32;74.13;99002.03;4946399;28;19933;-84
2021/09/13 05:07:12;;;;;;;;;;;;;;;17.31;73.88;98998.44;4927959;29;19971;-83
2021/09/13 05:09:38;;;;;;;;;;;;;;;17.31;73.88;98990.16;4933929;29;20428;-83
2021/09/13 05:12:05;;;;;;;;;;;;;;;17.30;73.51;98990.53;4935131;29;20346;-87
2021/09/13 05:14:32;;;;;;;;;;;;;;;17.38;73.66;98989.50;4934765;29;19927;-88
2021/09/13 05:16:58;;;;;;;;;;;;;;;17.42;73.54;98987.63;4918107;29;19933;-84
2021/09/13 05:19:27;;;;;;;;;;;;;;;17.51;73.49;98982.63;4934916;29;19938;-83
2021/09/13 05:21:53;;;;;;;;;;;;;;;17.59;73.44;98983.56;4918006;29;20026;-84
2021/09/13 05:24:21;;;;;;;;;;;;;;;17.59;72.51;98983.56;4934961;29;20296;-85
2021/09/13 05:26:53;;;;;;;;;;;;;;;17.69;72.58;98982.16;4948833;29;19965;-83
2021/09/13 05:29:19;;;;;;;;;;;;;;;17.75;72.25;98977.94;4954028;29;19973;-83
2021/09/13 05:31:46;;;;;;;;;;;;;;;17.74;72.11;98973.53;4938704;29;19927;-83
2021/09/13 05:34:14;;;;;;;;;;;;;;;17.83;72.21;98979.66;4934391;29;20463;-90
2021/09/13 05:36:40;;;;;;;;;;;;;;;17.86;72.24;98976.16;4917763;29;20003;-83
2021/09/13 05:39:06;;;;;;;;;;;;;;;17.88;71.95;98973.84;4933971;29;19934;-83
2021/09/13 05:41:52;;;;;;;;;;;;;;;17.94;72.08;98968.78;4933452;29;19973;-83
2021/09/13 05:44:24;;;;;;;;;;;;;;;17.99;71.62;98974.78;4916985;29;19952;-88
2021/09/13 05:46:54;;;;;;;;;;;;;;;17.94;71.33;98977.88;4917934;29;19933;-86
2021/09/13 05:49:19;;;;;;;;;;;;;;;17.95;71.44;98979.47;4916792;29;20384;-85
2021/09/13 05:51:51;;;;;;;;;;;;;;;17.96;71.31;98974.75;4917069;29;19927;-86
2021/09/13 05:54:25;;;;;;;;;;;;;;;17.95;70.83;98973.16;4930469;29;19927;-88
2021/09/13 05:56:53;;;;;;;;;;;;;;;17.96;70.95;98974.75;4917774;29;19934;-84
2021/09/13 05:59:21;;;;;;;;;;;;;;;17.93;70.47;98970.75;4917351;29;19962;-84
2021/09/13 06:01:49;;;;;;;;;;;;;;;17.99;70.42;98968.47;4917251;29;20021;-82
2021/09/13 06:04:16;;;;;;;;;;;;;;;18.03;69.96;98966.56;4934701;29;20516;-85
2021/09/13 06:06:43;;;;;;;;;;;;;;;18.07;69.79;98970.16;4917600;29;19973;-86
2021/09/13 06:09:10;;;;;;;;;;;;;;;18.16;68.76;98964.38;4933411;29;19962;-85
2021/09/13 06:11:38;;;;;;;;;;;;;;;18.27;68.65;98968.88;4917358;29;19962;-84
2021/09/13 06:14:04;;;;;;;;;;;;;;;18.45;68.61;98971.94;4916786;29;20387;-83
2021/09/13 06:16:30;;;;;;;;;;;;;;;18.55;68.31;98970.47;4917428;29;19931;-86
2021/09/13 06:18:59;;;;;;;;;;;;;;;18.61;67.61;98968.97;4945262;29;19934;-86
2021/09/13 06:21:25;;;;;;;;;;;;;;;18.64;67.28;98971.00;4919430;29;20073;-85
2021/09/13 06:23:52;;;;;;;;;;;;;;;18.65;66.54;98955.19;4920832;29;20017;-85
2021/09/13 06:26:18;;;;;;;;;;;;;;;18.63;66.48;98963.06;4932488;29;19954;-85
2021/09/13 06:28:45;;;;;;;;;;;;;;;18.69;66.43;98965.13;4948397;29;19926;-85
2021/09/13 06:31:12;;;;;;;;;;;;;;;18.73;66.03;98963.22;4920936;29;20005;-85
2021/09/13 06:33:37;;;;;;;;;;;;;;;18.68;65.88;98959.97;4936393;29;20062;-85
2021/09/13 06:36:04;;;;;;;;;;;;;;;18.68;66.19;98957.22;4937182;29;19927;-84
2021/09/13 06:38:33;;;;;;;;;;;;;;;18.81;66.67;98955.81;4937042;29;19930;-83
2021/09/13 06:41:02;;;;;;;;;;;;;;;18.98;65.79;98958.00;4920759;29;20319;-82
2021/09/13 06:43:29;;;;;;;;;;;;;;;19.20;65.59;98963.78;4937415;29;19993;-87
2021/09/13 06:48:38;;;;;;;;;;;;;;;19.51;64.95;98959.75;4936163;29;20351;-86
2021/09/13 06:51:04;;;;;;;;;;;;;;;19.58;64.82;98959.81;4936237;29;20026;-86
2021/09/13 06:53:30;;;;;;;;;;;;;;;19.69;64.84;98962.69;4937548;29;19931;-85
2021/09/13 06:55:56;;;;;;;;;;;;;;;19.70;63.85;98961.50;4920287;29;19933;-85
2021/09/13 06:58:22;;;;;;;;;;;;;;;19.76;63.89;98960.00;4936792;29;19927;-86
2021/09/13 07:00:48;;;;;;;;;;;;;;;19.74;62.84;98964.34;4919090;29;19973;-84
2021/09/13 07:03:15;;;;;;;;;;;;;;;19.70;62.72;98958.75;4919260;29;20018;-86
2021/09/13 07:05:42;;;;;;;;;;;;;;;19.73;62.50;98959.97;4936289;29;20475;-87
2021/09/13 07:08:08;;;;;;;;;;;;;;;19.75;63.36;98961.19;4919181;29;19927;-87
2021/09/13 07:10:34;;;;;;;;;;;;;;;19.76;63.02;98957.22;4917959;29;20025;-84
2021/09/13 07:13:01;;;;;;;;;;;;;;;19.85;63.30;98960.47;4935619;29;19927;-84
2021/09/13 07:15:28;;;;;;;;;;;;;;;19.91;63.63;98956.16;4935064;29;19931;-86
2021/09/13 07:17:53;;;;;;;;;;;;;;;19.98;63.53;98946.31;4934264;29;20026;-85
2021/09/13 07:20:20;;;;;;;;;;;;;;;20.05;63.52;98947.13;4919719;29;20392;-86
2021/09/13 07:22:46;;;;;;;;;;;;;;;20.11;63.78;98950.38;4918366;29;19931;-85
2021/09/13 07:25:12;;;;;;;;;;;;;;;20.17;64.06;98954.38;4934892;29;19927;-86
2021/09/13 07:27:42;;;;;;;;;;;;;;;20.11;63.94;98937.28;4935103;29;19933;-85
2021/09/13 07:30:09;;;;;;;;;;;;;;;20.24;64.16;98943.31;4934604;29;19926;-86
2021/09/13 07:32:35;;;;;;;;;;;;;;;20.22;64.03;98940.13;4918248;29;19931;-87
2021/09/13 07:35:01;;;;;;;;;;;;;;;20.18;64.08;98939.31;4902678;29;19927;-88
2021/09/13 07:37:27;;;;;;;;;;;;;;;20.16;64.85;98936.94;4901068;29;20047;-84
2021/09/13 07:39:53;;;;;;;;;;;;;;;20.14;65.08;98936.50;4898919;29;20409;-90
2021/09/13 07:42:20;;;;;;;;;;;;;;;20.17;65.42;98930.19;4899168;29;19928;-89
2021/09/13 07:44:46;;;;;;;;;;;;;;;20.18;64.40;98928.19;4913612;29;19983;-88
2021/09/13 07:47:12;;;;;;;;;;;;;;;20.13;64.99;98926.59;4898714;29;19931;-84
2021/09/13 07:49:37;;;;;;;;;;;;;;;20.15;64.28;98928.97;4898702;29;19935;-86
2021/09/13 07:52:03;;;;;;;;;;;;;;;20.21;64.55;98915.53;4913039;29;19963;-87
2021/09/13 07:54:30;;;;;;;;;;;;;;;20.23;64.90;98908.44;4897136;29;20393;-86
2021/09/13 07:56:55;;;;;;;;;;;;;;;20.27;64.74;98914.78;4898042;29;19933;-86
2021/09/13 07:59:21;;;;;;;;;;;;;;;20.36;64.38;98911.63;4897350;29;19955;-87
2021/09/13 08:01:49;;;;;;;;;;;;;;;20.42;64.63;98912.88;4898474;29;19927;-88
2021/09/13 08:04:15;;;;;;;;;;;;;;;20.51;64.42;98910.56;4898462;29;19975;-86
2021/09/13 08:06:41;;;;;;;;;;;;;;;20.60;62.81;98910.22;4896734;29;19946;-88
2021/09/13 08:09:07;;;;;;;;;;;;;;;20.63;62.04;98906.66;4896441;29;19938;-86
2021/09/13 08:11:34;;;;;;;;;;;;;;;20.68;61.78;98900.72;4895553;29;20444;-85
2021/09/13 08:14:02;;;;;;;;;;;;;;;20.76;62.72;98899.56;4895595;29;19931;-87
2021/09/13 08:16:29;;;;;;;;;;;;;;;20.86;62.88;98898.81;4897532;29;19999;-87
2021/09/13 08:18:57;;;;;;;;;;;;;;;21.00;61.90;98895.28;4881335;29;19927;-93
2021/09/13 08:21:27;;;;;;;;;;;;;;;21.11;61.78;98892.50;4912079;29;19928;-86
2021/09/13 08:23:52;;;;;;;;;;;;;;;21.31;60.98;98887.38;4897887;29;20033;-85
2021/09/13 08:26:18;;;;;;;;;;;;;;;21.67;59.57;98882.66;4897526;29;19927;-87
2021/09/13 08:28:44;;;;;;;;;;;;;;;22.13;57.79;98876.22;4897934;29;19934;-88
2021/09/13 08:31:11;;;;;;;;;;;;;;;22.25;55.57;98875.84;4897782;29;19931;-85
2021/09/13 08:33:37;;;;;;;;;;;;;;;22.07;56.05;98872.25;4900847;29;19931;-85
2021/09/13 08:36:04;;;;;;;;;;;;;;;21.98;55.96;98877.44;4935456;29;19926;-85
2021/09/13 08:38:30;;;;;;;;;;;;;;;21.95;57.00;98876.28;4935452;29;19931;-86
2021/09/13 08:40:57;;;;;;;;;;;;;;;21.96;55.57;98865.94;4918331;29;19981;-84
2021/09/13 08:43:23;;;;;;;;;;;;;;;22.02;57.03;98869.91;4918273;29;19926;-86
2021/09/13 08:46:01;;;;;;;;;;;;;;;22.07;56.34;98863.91;4935420;29;19926;-84
2021/09/13 08:48:47;;;;;;;;;;;;;;;22.12;54.97;98865.47;4918375;29;19938;-87
2021/09/13 08:51:18;;;;;;;;;;;;;;;22.17;54.79;98865.13;4918131;29;20411;-87
2021/09/13 08:53:50;;;;;;;;;;;;;;;22.18;54.34;98859.13;4918156;29;19927;-86
2021/09/13 08:56:17;;;;;;;;;;;;;;;22.22;53.58;98848.81;4935285;29;19926;-85
2021/09/13 08:58:44;;;;;;;;;;;;;;;22.28;50.31;98849.97;4935313;29;19926;-87
2021/09/13 09:01:12;;;;;;;;;;;;;;;22.33;51.45;98856.31;4917968;29;20413;-84
2021/09/13 09:03:39;;;;;;;;;;;;;;;22.34;49.23;98852.31;4934635;29;19923;-85
2021/09/13 09:06:06;;;;;;;;;;;;;;;22.36;50.50;98844.38;4934840;29;20357;-84
2021/09/13 09:08:33;;;;;;;;;;;;;;;22.44;51.66;98834.78;4928385;29;19938;-85
2021/09/13 09:11:03;;;;;;;;;;;;;;;22.49;49.26;98837.94;4929399;29;20284;-86
2021/09/13 09:13:37;;;;;;;;;;;;;;;22.94;51.89;98840.13;4952957;29;19927;-87
2021/09/13 09:16:05;;;;;;;;;;;;;;;23.12;48.11;98834.44;4945119;29;20420;-86
2021/09/13 09:18:42;;;;;;;;;;;;;;;22.96;47.00;98832.16;4917983;29;19933;-85
2021/09/13 09:21:09;;;;;;;;;;;;;;;22.80;48.34;98823.47;4934964;29;19926;-84
2021/09/13 09:23:55;;;;;;;;;;;;;;;22.71;48.32;98821.94;4934890;29;19927;-84
2021/09/13 09:26:21;;;;;;;;;;;;;;;22.94;48.93;98821.38;4933565;29;19935;-84
2021/09/13 09:28:47;;;;;;;;;;;;;;;23.37;50.65;98817.50;4916734;29;19931;-85
2021/09/13 09:31:13;;;;;;;;;;;;;;;23.75;49.99;98820.38;4925481;29;20033;-85
2021/09/13 09:33:38;;;;;;;;;;;;;;;24.02;47.81;98818.50;4922992;29;19967;-83
2021/09/13 09:36:11;;;;;;;;;;;;;;;24.01;47.31;98802.16;4932398;29;20012;-81
2021/09/13 09:38:45;;;;;;;;;;;;;;;23.86;44.74;98801.50;4931248;29;19931;-87
2021/09/13 09:41:13;;;;;;;;;;;;;;;23.56;46.88;98807.78;4930914;29;19934;-82
2021/09/13 09:43:57;;;;;;;;;;;;;;;23.61;45.56;98791.38;4904247;29;19933;-81
2021/09/13 09:46:36;;;;;;;;;;;;;;;23.75;44.87;98798.84;4932958;29;19926;-80
2021/09/13 09:49:03;;;;;;;;;;;;;;;23.79;45.95;98796.81;4932381;29;19927;-81
2021/09/13 09:51:31;;;;;;;;;;;;;;;23.70;44.73;98793.69;4933364;29;20112;-81
2021/09/13 09:53:58;;;;;;;;;;;;;;;23.45;43.91;98791.13;4936701;29;20471;-80
2021/09/13 09:56:25;;;;;;;;;;;;;;;23.40;44.46;98797.94;4936984;29;19927;-79
2021/09/13 09:58:58;;;;;;;;;;;;;;;23.38;43.17;98794.00;4919677;29;19933;-80
2021/09/13 10:01:57;;;;;;;;;;;;;;;23.33;42.54;98797.22;4936353;29;19934;-80
2021/09/13 10:04:25;;;;;;;;;;;;;;;23.47;43.05;98782.34;4890032;29;19927;-80
2021/09/13 10:06:54;;;;;;;;;;;;;;;23.42;42.88;98798.31;4891520;29;19924;-80
2021/09/13 10:09:22;;;;;;;;;;;;;;;23.45;42.71;98788.34;4889713;29;19964;-81
2021/09/13 10:11:50;;;;;;;;;;;;;;;23.47;42.56;98785.13;4878371;29;19972;-79
2021/09/13 10:14:18;;;;;;;;;;;;;;;23.53;44.38;98775.91;4888401;29;19998;-79
2021/09/13 10:16:44;;;;;;;;;;;;;;;23.67;42.56;98781.38;4878671;29;19927;-80
2021/09/13 10:19:11;;;;;;;;;;;;;;;23.66;42.24;98776.97;4881559;29;19927;-79
2021/09/13 10:21:37;;;;;;;;;;;;;;;23.73;41.82;98770.56;4883810;29;19931;-79
2021/09/13 10:24:08;;;;;;;;;;;;;;;23.89;43.08;98776.34;4892504;29;20419;-80
2021/09/13 10:26:35;;;;;;;;;;;;;;;23.95;40.64;98765.53;4867494;29;20294;-78
2021/09/13 10:29:01;;;;;;;;;;;;;;;23.98;39.73;98769.50;4879476;29;19927;-81
2021/09/13 10:31:42;;;;;;;;;;;;;;;23.96;40.34;98763.53;4879016;29;19932;-85
2021/09/13 10:34:23;;;;;;;;;;;;;;;24.03;39.81;98755.06;4878890;29;20432;-87
2021/09/13 10:37:03;;;;;;;;;;;;;;;24.05;39.64;98764.63;4878856;29;19928;-81
2021/09/13 10:39:47;;;;;;;;;;;;;;;24.07;38.97;98761.38;4878974;29;19927;-80
2021/09/13 10:42:30;;;;;;;;;;;;;;;24.08;39.56;98754.63;4918783;29;19927;-81
2021/09/13 10:45:15;;;;;;;;;;;;;;;23.96;39.75;98750.34;4919061;29;19927;-80
2021/09/13 10:47:45;;;;;;;;;;;;;;;24.03;39.91;98749.47;4918960;29;19961;-80
2021/09/13 10:50:16;;;;;;;;;;;;;;;24.01;39.55;98757.50;4918549;29;20355;-80
2021/09/13 10:52:44;;;;;;;;;;;;;;;24.10;40.69;98744.59;4918547;29;20325;-80
2021/09/13 10:55:11;;;;;;;;;;;;;;;24.19;39.06;98741.28;4918421;29;20318;-80
2021/09/13 10:57:49;;;;;;;;;;;;;;;24.13;39.90;98740.16;4917486;29;19987;-80
2021/09/13 11:00:15;;;;;;;;;;;;;;;24.01;40.15;98740.75;4918799;29;19927;-80
2021/09/13 11:02:41;;;;;;;;;;;;;;;23.98;39.77;98744.38;4918758;29;19934;-84
2021/09/13 11:05:23;;;;;;;;;;;;;;;23.99;40.36;98746.72;4918183;29;20320;-80
2021/09/13 11:08:13;;;;;;;;;;;;;;;23.98;39.63;98738.78;4918221;29;19927;-85
2021/09/13 11:10:45;;;;;;;;;;;;;;;24.11;40.66;98732.22;4909394;29;19927;-81
2021/09/13 11:13:10;;;;;;;;;;;;;;;24.11;40.32;98737.81;4927780;29;19931;-85
2021/09/13 11:15:37;;;;;;;;;;;;;;;24.00;40.33;98737.13;4928378;29;19931;-85
2021/09/13 11:18:04;;;;;;;;;;;;;;;24.00;39.71;98741.94;4918421;29;20298;-81
2021/09/13 11:20:31;;;;;;;;;;;;;;;24.13;39.69;98729.78;4918483;29;20353;-81
2021/09/13 11:22:58;;;;;;;;;;;;;;;24.25;40.45;98720.06;4918412;29;20344;-80
2021/09/13 11:25:25;;;;;;;;;;;;;;;24.37;40.18;98727.06;4918223;29;19929;-80
2021/09/13 11:28:00;;;;;;;;;;;;;;;24.47;39.74;98723.41;4918058;29;19973;-80
2021/09/13 11:30:46;;;;;;;;;;;;;;;24.36;40.24;98726.28;4917978;29;19950;-80
2021/09/13 11:33:13;;;;;;;;;;;;;;;24.35;40.24;98718.34;4917916;29;20308;-81
2021/09/13 11:35:39;;;;;;;;;;;;;;;24.45;40.22;98728.59;4917556;29;19934;-88
2021/09/13 11:38:05;;;;;;;;;;;;;;;24.41;41.16;98715.91;4917830;29;19934;-81
2021/09/13 11:40:31;;;;;;;;;;;;;;;24.41;40.87;98713.13;4917844;29;19927;-83
2021/09/13 11:43:07;;;;;;;;;;;;;;;24.40;41.40;98712.28;4917692;29;19935;-81
2021/09/13 11:45:34;;;;;;;;;;;;;;;24.22;41.38;98711.75;4917833;29;19923;-86
2021/09/13 11:48:04;;;;;;;;;;;;;;;24.10;41.54;98708.28;4917257;29;19961;-81
2021/09/13 11:50:32;;;;;;;;;;;;;;;24.02;42.16;98711.59;4917128;29;19923;-80
2021/09/13 11:53:10;;;;;;;;;;;;;;;24.00;42.54;98708.44;4917122;29;20468;-80
2021/09/13 11:55:37;;;;;;;;;;;;;;;24.00;42.81;98705.63;4917290;29;20332;-81
2021/09/13 11:58:06;;;;;;;;;;;;;;;23.89;43.36;98700.97;4917340;29;20320;-80
2021/09/13 12:00:37;;;;;;;;;;;;;;;23.86;42.78;98701.81;4917272;29;19934;-80
2021/09/13 12:03:07;;;;;;;;;;;;;;;23.88;43.53;98695.84;4917209;29;19927;-80
2021/09/13 12:05:34;;;;;;;;;;;;;;;23.96;42.77;98693.72;4917355;29;19970;-81
2021/09/13 12:08:01;;;;;;;;;;;;;;;23.92;42.66;98697.34;4917339;29;19930;-80
2021/09/13 12:10:32;;;;;;;;;;;;;;;23.86;42.92;98692.66;4916973;29;20025;-80
2021/09/13 12:13:17;;;;;;;;;;;;;;;23.74;42.77;98690.41;4916925;29;19931;-80
2021/09/13 12:15:55;;;;;;;;;;;;;;;23.59;42.85;98693.34;4916435;29;20018;-80
2021/09/13 12:18:21;;;;;;;;;;;;;;;23.47;43.57;98691.06;4916886;29;19934;-80
2021/09/13 12:20:48;;;;;;;;;;;;;;;23.24;43.47;98690.91;4917171;29;20021;-80
2021/09/13 12:23:21;;;;;;;;;;;;;;;23.13;43.90;98685.47;4917024;29;19927;-80
2021/09/13 12:25:48;;;;;;;;;;;;;;;23.05;43.99;98684.75;4917108;29;19943;-80
2021/09/13 12:28:27;;;;;;;;;;;;;;;22.97;44.54;98680.41;4916685;29;20392;-80
2021/09/13 12:30:54;;;;;;;;;;;;;;;22.89;44.68;98676.88;4917004;29;19979;-80
2021/09/13 12:33:20;;;;;;;;;;;;;;;22.84;44.25;98687.66;4916753;29;19962;-80
2021/09/13 12:35:48;;;;;;;;;;;;;;;22.83;45.42;98683.31;4916778;29;19936;-80
2021/09/13 12:38:17;;;;;;;;;;;;;;;22.79;44.77;98676.97;4916414;29;19953;-81
2021/09/13 12:40:47;;;;;;;;;;;;;;;22.77;45.55;98685.72;4916395;29;19935;-82
2021/09/13 12:43:18;;;;;;;;;;;;;;;22.77;45.75;98682.16;4916344;29;20420;-84
2021/09/13 12:45:44;;;;;;;;;;;;;;;22.70;45.24;98663.50;4916732;29;19927;-81
2021/09/13 12:48:10;;;;;;;;;;;;;;;22.65;45.36;98667.53;4916147;29;19933;-81
2021/09/13 12:50:41;;;;;;;;;;;;;;;22.60;46.15;98667.16;4916499;29;19927;-81
2021/09/13 12:53:17;;;;;;;;;;;;;;;22.60;46.39;98665.16;4916248;29;19927;-82
2021/09/13 12:55:43;;;;;;;;;;;;;;;22.60;45.77;98662.38;4916457;29;20041;-82
2021/09/13 12:58:28;;;;;;;;;;;;;;;22.64;46.01;98656.78;4916176;29;19927;-82
2021/09/13 13:00:55;;;;;;;;;;;;;;;22.63;46.06;98655.22;4916556;29;19966;-82
2021/09/13 13:03:21;;;;;;;;;;;;;;;22.61;46.62;98661.19;4916223;29;20021;-82
2021/09/13 13:05:49;;;;;;;;;;;;;;;22.57;46.71;98649.28;4916098;29;20328;-82
2021/09/13 13:08:16;;;;;;;;;;;;;;;22.50;47.10;98649.34;4915967;29;19934;-81
2021/09/13 13:10:42;;;;;;;;;;;;;;;22.43;47.87;98639.03;4899036;29;19987;-81
2021/09/13 13:13:07;;;;;;;;;;;;;;;22.37;48.90;98645.44;4915863;29;19931;-81
2021/09/13 13:15:33;;;;;;;;;;;;;;;22.28;48.31;98646.72;4915848;29;19927;-81
2021/09/13 13:17:59;;;;;;;;;;;;;;;22.27;48.16;98635.97;4915813;29;19934;-82
2021/09/13 13:20:27;;;;;;;;;;;;;;;22.24;48.34;98636.78;4916041;29;20010;-81
2021/09/13 13:22:54;;;;;;;;;;;;;;;22.24;47.93;98632.00;4915897;29;19936;-81
2021/09/13 13:25:21;;;;;;;;;;;;;;;22.32;48.23;98634.72;4915819;29;19927;-78
2021/09/13 13:27:46;;;;;;;;;;;;;;;22.37;48.56;98640.66;4914908;29;20317;-82
2021/09/13 13:30:16;;;;;;;;;;;;;;;22.38;47.51;98630.31;4915813;29;19927;-81
2021/09/13 13:32:43;;;;;;;;;;;;;;;22.33;48.51;98631.56;4915577;29;19930;-81
2021/09/13 13:35:09;;;;;;;;;;;;;;;22.32;48.42;98626.38;4915410;29;19927;-81
2021/09/13 13:37:34;;;;;;;;;;;;;;;22.27;49.36;98614.50;4915925;29;19927;-81
2021/09/13 13:40:00;;;;;;;;;;;;;;;22.26;49.03;98609.34;4915534;29;19938;-81
2021/09/13 13:42:26;;;;;;;;;;;;;;;22.22;49.35;98612.16;4915609;29;19927;-81
2021/09/13 13:44:56;;;;;;;;;;;;;;;22.23;49.04;98604.59;4915816;29;20414;-82
2021/09/13 13:47:22;;;;;;;;;;;;;;;22.28;49.61;98604.13;4915438;29;19931;-80
2021/09/13 13:49:49;;;;;;;;;;;;;;;22.45;49.60;98602.41;4914309;29;20554;-82
2021/09/13 13:52:15;;;;;;;;;;;;;;;22.46;48.77;98598.44;4915330;29;20154;-80
2021/09/13 13:54:41;;;;;;;;;;;;;;;22.53;48.83;98595.59;4915726;29;20026;-80
2021/09/13 13:57:07;;;;;;;;;;;;;;;22.55;48.58;98590.41;4915606;29;19931;-80
2021/09/13 13:59:33;;;;;;;;;;;;;;;22.50;49.80;98588.84;4915661;29;19934;-80
2021/09/13 14:01:58;;;;;;;;;;;;;;;22.40;49.26;98589.72;4915359;29;19923;-92
2021/09/13 14:04:25;;;;;;;;;;;;;;;22.33;49.95;98589.00;4899309;29;19933;-91
2021/09/13 14:06:51;;;;;;;;;;;;;;;22.25;50.02;98586.28;4899096;29;20025;-91
2021/09/13 14:09:17;;;;;;;;;;;;;;;22.17;49.83;98581.94;4914874;29;20353;-92
2021/09/13 14:11:43;;;;;;;;;;;;;;;22.11;50.31;98585.53;4883702;29;19930;-91
2021/09/13 14:14:09;;;;;;;;;;;;;;;22.01;50.05;98585.19;4899017;29;19931;-91
2021/09/13 14:16:35;;;;;;;;;;;;;;;21.97;50.73;98589.22;4915525;29;19981;-91
2021/09/13 14:19:01;;;;;;;;;;;;;;;21.98;51.34;98583.22;4898720;29;19970;-90
2021/09/13 14:21:27;;;;;;;;;;;;;;;22.02;51.08;98586.81;4883260;29;19935;-91
2021/09/13 14:23:53;;;;;;;;;;;;;;;22.04;51.53;98581.59;4883222;29;19966;-91
2021/09/13 14:26:19;;;;;;;;;;;;;;;22.04;52.06;98578.03;4915670;29;19982;-91
2021/09/13 14:28:46;;;;;;;;;;;;;;;21.99;51.72;98567.34;4883291;29;20385;-91
2021/09/13 14:31:12;;;;;;;;;;;;;;;21.94;51.76;98565.78;4883180;29;19927;-91
2021/09/13 14:33:38;;;;;;;;;;;;;;;21.92;52.76;98568.19;4915639;29;19934;-91
2021/09/13 14:36:04;;;;;;;;;;;;;;;21.86;52.31;98566.25;4898910;29;19927;-90
2021/09/13 14:38:32;;;;;;;;;;;;;;;21.80;52.92;98568.66;4900778;29;20025;-91
2021/09/13 14:40:58;;;;;;;;;;;;;;;21.75;52.85;98561.50;4902573;29;20029;-92
2021/09/13 14:43:24;;;;;;;;;;;;;;;21.66;53.16;98569.53;4902271;29;20324;-91
2021/09/13 14:45:51;;;;;;;;;;;;;;;21.60;53.53;98562.03;4919142;29;19933;-87
2021/09/13 14:48:19;;;;;;;;;;;;;;;21.51;53.44;98568.00;4935304;29;19997;-88
2021/09/13 14:50:45;;;;;;;;;;;;;;;21.41;54.18;98571.63;4936079;29;19943;-88
2021/09/13 14:53:13;;;;;;;;;;;;;;;21.29;55.68;98562.53;4920182;29;19935;-91
2021/09/13 14:55:40;;;;;;;;;;;;;;;21.17;56.29;98576.84;4937222;29;19989;-87
2021/09/13 14:58:05;;;;;;;;;;;;;;;21.09;56.46;98575.28;4936692;29;20046;-87
2021/09/13 15:00:31;;;;;;;;;;;;;;;21.02;56.23;98578.88;4937512;29;20017;-88
2021/09/13 15:02:59;;;;;;;;;;;;;;;21.00;56.43;98566.59;4920101;29;19973;-87
2021/09/13 15:05:25;;;;;;;;;;;;;;;20.97;56.78;98570.97;4920309;29;19970;-88
2021/09/13 15:07:50;;;;;;;;;;;;;;;21.02;56.72;98570.53;4937224;29;20029;-89
2021/09/13 15:10:16;;;;;;;;;;;;;;;21.02;56.69;98561.41;4919543;29;19923;-84
2021/09/13 15:12:44;;;;;;;;;;;;;;;21.18;56.08;98560.97;4936534;29;19931;-83
2021/09/13 15:15:10;;;;;;;;;;;;;;;21.15;56.39;98565.34;4937196;29;19927;-88
2021/09/13 15:17:38;;;;;;;;;;;;;;;21.08;56.44;98568.94;4936653;29;19927;-83
2021/09/13 15:20:04;;;;;;;;;;;;;;;21.10;56.11;98554.66;4917858;29;19981;-85
2021/09/13 15:22:32;;;;;;;;;;;;;;;21.02;56.15;98551.09;4937185;29;20368;-83
2021/09/13 15:24:58;;;;;;;;;;;;;;;20.93;56.25;98544.41;4936486;29;20285;-83
2021/09/13 15:27:24;;;;;;;;;;;;;;;20.79;56.58;98545.97;4919700;29;19927;-82
2021/09/13 15:29:49;;;;;;;;;;;;;;;20.74;56.83;98554.75;4936640;29;19927;-83
2021/09/13 15:32:16;;;;;;;;;;;;;;;20.62;57.27;98552.38;4936638;29;19934;-83
2021/09/13 15:34:42;;;;;;;;;;;;;;;20.53;57.47;98549.19;4936030;29;19927;-84
2021/09/13 15:37:08;;;;;;;;;;;;;;;20.50;58.65;98547.22;4935082;29;19931;-81
2021/09/13 15:39:34;;;;;;;;;;;;;;;20.36;58.18;98550.78;4919385;29;19950;-83
2021/09/13 15:41:59;;;;;;;;;;;;;;;20.31;58.59;98551.19;4935914;29;20293;-84
2021/09/13 15:44:25;;;;;;;;;;;;;;;20.28;58.87;98561.09;4936450;29;20024;-83
2021/09/13 15:46:57;;;;;;;;;;;;;;;20.24;58.88;98559.53;4936663;29;20025;-83
2021/09/13 15:49:26;;;;;;;;;;;;;;;20.27;60.56;98555.94;4918487;29;20017;-83
2021/09/13 15:51:52;;;;;;;;;;;;;;;20.26;59.29;98555.13;4936157;29;20311;-83
2021/09/13 15:54:18;;;;;;;;;;;;;;;20.17;59.41;98546.44;4936255;29;19970;-83
2021/09/13 15:56:44;;;;;;;;;;;;;;;20.10;59.89;98547.22;4936180;29;19976;-83
2021/09/13 15:59:12;;;;;;;;;;;;;;;20.12;59.96;98552.38;4936110;29;19927;-85
2021/09/13 16:01:38;;;;;;;;;;;;;;;20.07;60.20;98541.69;4929382;29;20660;-85
2021/09/13 16:04:05;;;;;;;;;;;;;;;20.01;60.67;98551.56;4934346;29;19926;-83
2021/09/13 16:06:31;;;;;;;;;;;;;;;19.95;60.81;98548.38;4934846;29;20323;-82
2021/09/13 16:08:57;;;;;;;;;;;;;;;19.94;60.79;98555.13;4934177;29;19938;-85
2021/09/13 16:11:23;;;;;;;;;;;;;;;19.94;61.26;98560.69;4934747;29;19923;-85
2021/09/13 16:13:49;;;;;;;;;;;;;;;19.87;61.34;98560.69;4917990;29;19934;-83
2021/09/13 16:16:14;;;;;;;;;;;;;;;19.83;61.25;98557.88;4933948;29;19926;-81
2021/09/13 16:18:43;;;;;;;;;;;;;;;19.79;61.69;98557.06;4932777;29;20315;-86
2021/09/13 16:21:08;;;;;;;;;;;;;;;19.75;61.84;98556.28;4934381;29;20376;-83
2021/09/13 16:23:34;;;;;;;;;;;;;;;;;;4934419;29;19934;-86
2021/09/13 16:26:04;;;;;;;;;;;;;;;19.59;62.55;98569.66;4934082;29;20308;-87
2021/09/13 16:28:30;;;;;;;;;;;;;;;19.57;62.56;98547.91;4921221;29;19938;-84
2021/09/13 16:30:56;;;;;;;;;;;;;;;19.53;62.81;98552.63;4906732;29;19927;-82
2021/09/13 16:33:22;;;;;;;;;;;;;;;19.50;63.08;98547.84;4917186;29;20017;-84
2021/09/13 16:35:50;;;;;;;;;;;;;;;19.46;63.25;98550.63;4920108;29;19974;-81
2021/09/13 16:38:16;;;;;;;;;;;;;;;19.40;63.31;98549.44;4916225;29;20030;-83
2021/09/13 16:40:43;;;;;;;;;;;;;;;19.38;63.56;98543.47;4899181;29;20034;-84
2021/09/13 16:43:10;;;;;;;;;;;;;;;19.38;63.78;98548.22;4915716;29;20414;-82
2021/09/13 16:45:36;;;;;;;;;;;;;;;19.43;63.63;98547.84;4915720;29;19982;-85
2021/09/13 16:48:04;;;;;;;;;;;;;;;19.41;63.94;98553.00;4919607;29;19927;-85
2021/09/13 16:50:30;;;;;;;;;;;;;;;19.34;64.05;98550.22;4934189;29;20404;-84
2021/09/13 16:52:57;;;;;;;;;;;;;;;19.23;64.47;98550.13;4930712;29;19943;-86
2021/09/13 16:55:23;;;;;;;;;;;;;;;19.19;64.60;98546.56;4942448;29;19949;-83
2021/09/13 16:57:49;;;;;;;;;;;;;;;19.13;64.95;98545.34;4933232;29;19926;-82
2021/09/13 17:00:16;;;;;;;;;;;;;;;19.05;65.36;98538.19;4933729;29;19942;-82
2021/09/13 17:02:41;;;;;;;;;;;;;;;18.97;65.54;98546.47;4933508;29;20011;-83
2021/09/13 17:05:07;;;;;;;;;;;;;;;18.92;65.86;98541.28;4916513;29;19934;-83
2021/09/13 17:07:34;;;;;;;;;;;;;;;18.86;66.22;98542.06;4933459;29;20017;-82
2021/09/13 17:10:00;;;;;;;;;;;;;;;18.79;66.61;98542.81;4915407;29;20026;-81
2021/09/13 17:12:28;;;;;;;;;;;;;;;18.74;66.69;98554.22;4937058;29;20055;-81
2021/09/13 17:14:54;;;;;;;;;;;;;;;18.68;67.08;98551.03;4945531;29;20348;-81
2021/09/13 17:17:21;;;;;;;;;;;;;;;18.64;67.41;98555.75;4940870;29;19962;-82
2021/09/13 17:19:47;;;;;;;;;;;;;;;18.60;67.63;98554.13;4931834;29;20419;-83
2021/09/13 17:22:14;;;;;;;;;;;;;;;18.55;67.89;98547.78;4932253;29;19927;-83
2021/09/13 17:24:40;;;;;;;;;;;;;;;18.48;68.06;98542.19;4931643;29;19927;-84
2021/09/13 17:27:07;;;;;;;;;;;;;;;18.47;68.38;98551.66;4931667;29;20325;-83
2021/09/13 17:29:33;;;;;;;;;;;;;;;18.40;68.74;98550.81;4930706;29;19927;-83
2021/09/13 17:31:59;;;;;;;;;;;;;;;18.36;68.99;98552.75;4926357;29;19941;-84